Terminal Aerodrome Forecast
Issued by NWS

Home | Current Version | Previous Version | Text Only | Print | Product List | Glossary On
Versions: 1 2 3 4 5 6 7 8 9 10 11 12 13 14 15 16 17 18 19 20 21 22 23 24 25 26 27
000
FTUS41 KBUF 212320
TAFJHW
TAF
KJHW 212320Z 2200/2224 21010KT P6SM OVC250
     FM220300 22008KT P6SM OVC080
     FM220500 26007KT 6SM -SHRA OVC015
     FM220700 28006KT 4SM -SHRASN BR OVC007
     FM220900 31007KT 2SM -SN OVC007
     FM221100 31009KT P6SM VCSH BKN025
     FM221400 31012KT P6SM BKN035
      AMD LTD TO CLD VIS AND WIND=

USA.gov is the U.S. government's official web portal to all federal, state and local government web resources and services.